sensor_id;sensor_type;location;lat;lon;timestamp;temperature;humidity
25504;DHT22;13410;52.114;5.718;2023-06-10T00:01:32;24.40;99.90
25504;DHT22;13410;52.114;5.718;2023-06-10T00:03:59;24.20;99.90
25504;DHT22;13410;52.114;5.718;2023-06-10T00:06:25;24.20;99.90
25504;DHT22;13410;52.114;5.718;2023-06-10T00:08:51;24.20;99.90
25504;DHT22;13410;52.114;5.718;2023-06-10T00:11:16;24.30;99.90
25504;DHT22;13410;52.114;5.718;2023-06-10T00:13:42;24.20;99.90
25504;DHT22;13410;52.114;5.718;2023-06-10T00:16:08;24.30;99.90
25504;DHT22;13410;52.114;5.718;2023-06-10T00:18:34;24.20;99.90
25504;DHT22;13410;52.114;5.718;2023-06-10T00:21:02;24.10;99.90
25504;DHT22;13410;52.114;5.718;2023-06-10T00:23:30;24.00;99.90
25504;DHT22;13410;52.114;5.718;2023-06-10T00:26:03;24.10;99.90
25504;DHT22;13410;52.114;5.718;2023-06-10T00:28:30;24.10;99.90
25504;DHT22;13410;52.114;5.718;2023-06-10T00:30:55;24.00;99.90
25504;DHT22;13410;52.114;5.718;2023-06-10T00:33:22;24.10;99.90
25504;DHT22;13410;52.114;5.718;2023-06-10T00:35:48;24.00;99.90
25504;DHT22;13410;52.114;5.718;2023-06-10T00:38:14;23.90;99.90
25504;DHT22;13410;52.114;5.718;2023-06-10T00:40:42;23.90;99.90
25504;DHT22;13410;52.114;5.718;2023-06-10T00:43:09;23.80;99.90
25504;DHT22;13410;52.114;5.718;2023-06-10T00:45:35;23.80;99.90
25504;DHT22;13410;52.114;5.718;2023-06-10T00:48:01;23.80;99.90
25504;DHT22;13410;52.114;5.718;2023-06-10T00:50:27;23.80;99.90
25504;DHT22;13410;52.114;5.718;2023-06-10T00:52:54;23.70;99.90
25504;DHT22;13410;52.114;5.718;2023-06-10T00:55:20;23.60;99.90
25504;DHT22;13410;52.114;5.718;2023-06-10T00:57:46;23.70;99.90
25504;DHT22;13410;52.114;5.718;2023-06-10T01:00:14;23.60;99.90
25504;DHT22;13410;52.114;5.718;2023-06-10T01:02:41;23.60;99.90
25504;DHT22;13410;52.114;5.718;2023-06-10T01:05:07;23.70;99.90
25504;DHT22;13410;52.114;5.718;2023-06-10T01:10:44;23.70;99.90
25504;DHT22;13410;52.114;5.718;2023-06-10T01:13:13;23.50;99.90
25504;DHT22;13410;52.114;5.718;2023-06-10T01:15:39;23.50;99.90
25504;DHT22;13410;52.114;5.718;2023-06-10T01:18:09;23.60;99.90
25504;DHT22;13410;52.114;5.718;2023-06-10T01:20:40;23.60;99.90
25504;DHT22;13410;52.114;5.718;2023-06-10T01:23:07;23.60;99.90
25504;DHT22;13410;52.114;5.718;2023-06-10T01:25:37;23.50;99.90
25504;DHT22;13410;52.114;5.718;2023-06-10T01:28:31;23.50;99.90
25504;DHT22;13410;52.114;5.718;2023-06-10T01:31:23;23.40;99.90
25504;DHT22;13410;52.114;5.718;2023-06-10T01:33:59;23.50;99.90
25504;DHT22;13410;52.114;5.718;2023-06-10T01:36:26;23.50;99.90
25504;DHT22;13410;52.114;5.718;2023-06-10T01:38:53;23.30;99.90
25504;DHT22;13410;52.114;5.718;2023-06-10T01:41:19;23.30;99.90
25504;DHT22;13410;52.114;5.718;2023-06-10T01:43:47;23.30;99.90
25504;DHT22;13410;52.114;5.718;2023-06-10T01:46:13;23.20;99.90
25504;DHT22;13410;52.114;5.718;2023-06-10T01:48:38;23.10;99.90
25504;DHT22;13410;52.114;5.718;2023-06-10T01:51:05;23.20;99.90
25504;DHT22;13410;52.114;5.718;2023-06-10T01:53:30;23.20;99.90
25504;DHT22;13410;52.114;5.718;2023-06-10T01:55:56;23.10;99.90
25504;DHT22;13410;52.114;5.718;2023-06-10T01:58:23;23.10;99.90
25504;DHT22;13410;52.114;5.718;2023-06-10T02:00:49;22.90;99.90
25504;DHT22;13410;52.114;5.718;2023-06-10T02:03:14;23.00;99.90
25504;DHT22;13410;52.114;5.718;2023-06-10T02:05:40;23.10;99.90
25504;DHT22;13410;52.114;5.718;2023-06-10T02:08:05;22.90;99.90
25504;DHT22;13410;52.114;5.718;2023-06-10T02:10:31;22.90;99.90
25504;DHT22;13410;52.114;5.718;2023-06-10T02:12:57;22.90;99.90
25504;DHT22;13410;52.114;5.718;2023-06-10T02:15:22;22.80;99.90
25504;DHT22;13410;52.114;5.718;2023-06-10T02:17:48;22.80;99.90
25504;DHT22;13410;52.114;5.718;2023-06-10T02:20:14;22.70;99.90
25504;DHT22;13410;52.114;5.718;2023-06-10T02:22:40;22.70;99.90
25504;DHT22;13410;52.114;5.718;2023-06-10T02:25:06;22.80;99.90
25504;DHT22;13410;52.114;5.718;2023-06-10T02:27:31;22.80;99.90
25504;DHT22;13410;52.114;5.718;2023-06-10T02:29:58;22.80;99.90
25504;DHT22;13410;52.114;5.718;2023-06-10T02:32:23;22.80;99.90
25504;DHT22;13410;52.114;5.718;2023-06-10T02:34:49;22.70;99.90
25504;DHT22;13410;52.114;5.718;2023-06-10T02:37:15;22.80;99.90
25504;DHT22;13410;52.114;5.718;2023-06-10T02:39:41;22.70;99.90
25504;DHT22;13410;52.114;5.718;2023-06-10T02:42:07;22.80;99.90
25504;DHT22;13410;52.114;5.718;2023-06-10T02:44:33;22.70;99.90
25504;DHT22;13410;52.114;5.718;2023-06-10T02:46:59;22.60;99.90
25504;DHT22;13410;52.114;5.718;2023-06-10T02:49:25;22.60;99.90
25504;DHT22;13410;52.114;5.718;2023-06-10T02:51:53;22.40;99.90
25504;DHT22;13410;52.114;5.718;2023-06-10T02:54:19;22.40;99.90
25504;DHT22;13410;52.114;5.718;2023-06-10T02:56:45;22.40;99.90
25504;DHT22;13410;52.114;5.718;2023-06-10T02:59:11;22.50;99.90
25504;DHT22;13410;52.114;5.718;2023-06-10T03:01:37;22.60;99.90
25504;DHT22;13410;52.114;5.718;2023-06-10T03:04:05;22.50;99.90
25504;DHT22;13410;52.114;5.718;2023-06-10T03:06:31;22.50;99.90
25504;DHT22;13410;52.114;5.718;2023-06-10T03:09:02;22.50;99.90
25504;DHT22;13410;52.114;5.718;2023-06-10T03:11:29;22.40;99.90
25504;DHT22;13410;52.114;5.718;2023-06-10T03:13:56;22.50;99.90
25504;DHT22;13410;52.114;5.718;2023-06-10T03:16:22;22.30;99.90
25504;DHT22;13410;52.114;5.718;2023-06-10T03:18:50;22.30;99.90
25504;DHT22;13410;52.114;5.718;2023-06-10T03:21:16;22.30;99.90
25504;DHT22;13410;52.114;5.718;2023-06-10T03:23:41;22.20;99.90
25504;DHT22;13410;52.114;5.718;2023-06-10T03:26:07;22.20;99.90
25504;DHT22;13410;52.114;5.718;2023-06-10T03:28:33;22.20;99.90
25504;DHT22;13410;52.114;5.718;2023-06-10T03:30:59;22.20;99.90
25504;DHT22;13410;52.114;5.718;2023-06-10T03:33:25;22.20;99.90
25504;DHT22;13410;52.114;5.718;2023-06-10T03:35:51;22.20;99.90
25504;DHT22;13410;52.114;5.718;2023-06-10T03:38:17;22.10;99.90
25504;DHT22;13410;52.114;5.718;2023-06-10T03:40:42;22.10;99.90
25504;DHT22;13410;52.114;5.718;2023-06-10T03:43:08;22.20;99.90
25504;DHT22;13410;52.114;5.718;2023-06-10T03:45:34;22.30;99.90
25504;DHT22;13410;52.114;5.718;2023-06-10T03:48:00;22.10;99.90
25504;DHT22;13410;52.114;5.718;2023-06-10T03:50:26;22.10;99.90
25504;DHT22;13410;52.114;5.718;2023-06-10T03:52:52;22.10;99.90
25504;DHT22;13410;52.114;5.718;2023-06-10T03:55:17;22.10;99.90
25504;DHT22;13410;52.114;5.718;2023-06-10T03:57:43;22.20;99.90
25504;DHT22;13410;52.114;5.718;2023-06-10T04:00:09;22.40;99.90
25504;DHT22;13410;52.114;5.718;2023-06-10T04:02:38;22.60;99.90
25504;DHT22;13410;52.114;5.718;2023-06-10T04:05:11;22.90;99.90
25504;DHT22;13410;52.114;5.718;2023-06-10T04:07:37;23.20;99.90
25504;DHT22;13410;52.114;5.718;2023-06-10T04:10:06;23.40;99.90
25504;DHT22;13410;52.114;5.718;2023-06-10T04:12:32;23.50;99.90
25504;DHT22;13410;52.114;5.718;2023-06-10T04:14:58;23.60;99.90
25504;DHT22;13410;52.114;5.718;2023-06-10T04:17:24;23.80;99.90
25504;DHT22;13410;52.114;5.718;2023-06-10T04:19:49;24.20;99.90
25504;DHT22;13410;52.114;5.718;2023-06-10T04:22:16;24.50;99.90
25504;DHT22;13410;52.114;5.718;2023-06-10T04:24:42;24.70;99.90
25504;DHT22;13410;52.114;5.718;2023-06-10T04:27:08;24.90;99.90
25504;DHT22;13410;52.114;5.718;2023-06-10T04:29:33;25.30;99.90
25504;DHT22;13410;52.114;5.718;2023-06-10T04:31:59;25.60;99.90
25504;DHT22;13410;52.114;5.718;2023-06-10T04:34:27;26.00;99.90
25504;DHT22;13410;52.114;5.718;2023-06-10T04:36:52;26.30;99.90
25504;DHT22;13410;52.114;5.718;2023-06-10T04:39:18;26.60;99.90
25504;DHT22;13410;52.114;5.718;2023-06-10T04:41:45;26.50;99.90
25504;DHT22;13410;52.114;5.718;2023-06-10T04:44:11;26.50;99.90
25504;DHT22;13410;52.114;5.718;2023-06-10T04:46:37;26.80;99.90
25504;DHT22;13410;52.114;5.718;2023-06-10T04:49:02;27.10;99.90
25504;DHT22;13410;52.114;5.718;2023-06-10T04:51:28;27.20;99.90
25504;DHT22;13410;52.114;5.718;2023-06-10T04:53:53;27.40;99.90
25504;DHT22;13410;52.114;5.718;2023-06-10T04:56:19;27.20;99.90
25504;DHT22;13410;52.114;5.718;2023-06-10T04:58:45;27.30;99.90
25504;DHT22;13410;52.114;5.718;2023-06-10T05:01:11;27.40;99.90
25504;DHT22;13410;52.114;5.718;2023-06-10T05:03:36;27.80;99.90
25504;DHT22;13410;52.114;5.718;2023-06-10T05:06:02;27.90;99.90
25504;DHT22;13410;52.114;5.718;2023-06-10T05:08:27;28.30;99.90
25504;DHT22;13410;52.114;5.718;2023-06-10T05:10:53;28.60;99.90
25504;DHT22;13410;52.114;5.718;2023-06-10T05:13:18;28.70;99.90
25504;DHT22;13410;52.114;5.718;2023-06-10T05:15:44;29.00;99.90
25504;DHT22;13410;52.114;5.718;2023-06-10T05:18:11;29.50;99.90
25504;DHT22;13410;52.114;5.718;2023-06-10T05:20:40;29.30;99.90
25504;DHT22;13410;52.114;5.718;2023-06-10T05:23:06;29.40;99.90
25504;DHT22;13410;52.114;5.718;2023-06-10T05:25:32;29.40;99.90
25504;DHT22;13410;52.114;5.718;2023-06-10T05:27:58;29.70;99.90
25504;DHT22;13410;52.114;5.718;2023-06-10T05:30:24;29.70;99.90
25504;DHT22;13410;52.114;5.718;2023-06-10T05:32:51;30.00;99.90
25504;DHT22;13410;52.114;5.718;2023-06-10T05:35:18;29.90;99.90
25504;DHT22;13410;52.114;5.718;2023-06-10T05:37:43;30.00;99.90
25504;DHT22;13410;52.114;5.718;2023-06-10T05:40:10;30.10;99.90
25504;DHT22;13410;52.114;5.718;2023-06-10T05:42:35;30.20;99.90
25504;DHT22;13410;52.114;5.718;2023-06-10T05:45:02;30.40;99.90
25504;DHT22;13410;52.114;5.718;2023-06-10T05:47:28;30.20;99.90
25504;DHT22;13410;52.114;5.718;2023-06-10T05:49:53;30.20;99.90
25504;DHT22;13410;52.114;5.718;2023-06-10T05:52:19;30.20;99.90
25504;DHT22;13410;52.114;5.718;2023-06-10T05:54:45;30.40;99.90
25504;DHT22;13410;52.114;5.718;2023-06-10T05:57:11;30.20;99.90
25504;DHT22;13410;52.114;5.718;2023-06-10T05:59:36;30.00;99.90
25504;DHT22;13410;52.114;5.718;2023-06-10T06:02:02;30.10;99.90
25504;DHT22;13410;52.114;5.718;2023-06-10T06:04:28;30.10;99.90
25504;DHT22;13410;52.114;5.718;2023-06-10T06:06:53;30.20;99.90
25504;DHT22;13410;52.114;5.718;2023-06-10T06:09:19;30.40;99.90
25504;DHT22;13410;52.114;5.718;2023-06-10T06:11:44;30.60;99.90
25504;DHT22;13410;52.114;5.718;2023-06-10T06:14:10;30.70;99.90
25504;DHT22;13410;52.114;5.718;2023-06-10T06:16:39;30.80;99.90
25504;DHT22;13410;52.114;5.718;2023-06-10T06:19:04;31.20;99.90
25504;DHT22;13410;52.114;5.718;2023-06-10T06:21:30;31.50;99.90
25504;DHT22;13410;52.114;5.718;2023-06-10T06:23:55;31.50;99.90
25504;DHT22;13410;52.114;5.718;2023-06-10T06:26:21;31.40;99.90
25504;DHT22;13410;52.114;5.718;2023-06-10T06:28:47;31.50;99.90
25504;DHT22;13410;52.114;5.718;2023-06-10T06:31:12;31.70;99.90
25504;DHT22;13410;52.114;5.718;2023-06-10T06:33:38;31.80;99.90
25504;DHT22;13410;52.114;5.718;2023-06-10T06:36:04;32.00;99.90
25504;DHT22;13410;52.114;5.718;2023-06-10T06:38:29;32.00;99.90
25504;DHT22;13410;52.114;5.718;2023-06-10T06:40:55;32.10;99.90
25504;DHT22;13410;52.114;5.718;2023-06-10T06:43:20;31.90;99.90
25504;DHT22;13410;52.114;5.718;2023-06-10T06:45:46;31.90;99.90
25504;DHT22;13410;52.114;5.718;2023-06-10T06:48:12;32.10;99.90
25504;DHT22;13410;52.114;5.718;2023-06-10T06:50:37;32.30;99.90
25504;DHT22;13410;52.114;5.718;2023-06-10T06:53:04;32.20;99.90
25504;DHT22;13410;52.114;5.718;2023-06-10T06:55:30;32.10;99.90
25504;DHT22;13410;52.114;5.718;2023-06-10T06:57:55;32.10;99.90
25504;DHT22;13410;52.114;5.718;2023-06-10T07:00:21;32.10;99.90
25504;DHT22;13410;52.114;5.718;2023-06-10T07:02:47;32.10;99.90
25504;DHT22;13410;52.114;5.718;2023-06-10T07:05:13;32.20;99.90
25504;DHT22;13410;52.114;5.718;2023-06-10T07:07:38;32.40;99.90
25504;DHT22;13410;52.114;5.718;2023-06-10T07:10:04;32.30;99.90
25504;DHT22;13410;52.114;5.718;2023-06-10T07:12:30;32.50;99.90
25504;DHT22;13410;52.114;5.718;2023-06-10T07:14:56;32.20;99.90
25504;DHT22;13410;52.114;5.718;2023-06-10T07:17:21;32.10;99.90
25504;DHT22;13410;52.114;5.718;2023-06-10T07:19:47;32.00;99.90
25504;DHT22;13410;52.114;5.718;2023-06-10T07:22:13;31.90;99.90
25504;DHT22;13410;52.114;5.718;2023-06-10T07:24:39;32.00;99.90
25504;DHT22;13410;52.114;5.718;2023-06-10T07:27:05;31.80;99.90
25504;DHT22;13410;52.114;5.718;2023-06-10T07:29:31;31.80;99.90
25504;DHT22;13410;52.114;5.718;2023-06-10T07:31:56;31.70;99.90
25504;DHT22;13410;52.114;5.718;2023-06-10T07:34:22;31.70;99.90
25504;DHT22;13410;52.114;5.718;2023-06-10T07:36:47;31.70;99.90
25504;DHT22;13410;52.114;5.718;2023-06-10T07:39:13;31.60;99.90
25504;DHT22;13410;52.114;5.718;2023-06-10T07:41:38;31.60;99.90
25504;DHT22;13410;52.114;5.718;2023-06-10T07:44:04;31.70;99.90
25504;DHT22;13410;52.114;5.718;2023-06-10T07:46:30;31.60;99.90
25504;DHT22;13410;52.114;5.718;2023-06-10T07:48:55;31.50;99.90
25504;DHT22;13410;52.114;5.718;2023-06-10T07:51:21;31.60;99.90
25504;DHT22;13410;52.114;5.718;2023-06-10T07:53:47;31.50;99.90
25504;DHT22;13410;52.114;5.718;2023-06-10T07:56:13;31.40;99.90
25504;DHT22;13410;52.114;5.718;2023-06-10T07:58:39;31.40;99.90
25504;DHT22;13410;52.114;5.718;2023-06-10T08:01:04;31.50;99.90
25504;DHT22;13410;52.114;5.718;2023-06-10T08:03:30;31.60;99.90
25504;DHT22;13410;52.114;5.718;2023-06-10T08:05:56;31.50;99.90
25504;DHT22;13410;52.114;5.718;2023-06-10T08:08:21;31.50;99.90
25504;DHT22;13410;52.114;5.718;2023-06-10T08:10:47;31.30;99.90
25504;DHT22;13410;52.114;5.718;2023-06-10T08:13:14;31.30;99.90
25504;DHT22;13410;52.114;5.718;2023-06-10T08:15:40;31.40;99.90
25504;DHT22;13410;52.114;5.718;2023-06-10T08:18:05;31.30;99.90
25504;DHT22;13410;52.114;5.718;2023-06-10T08:20:31;30.90;99.90
25504;DHT22;13410;52.114;5.718;2023-06-10T08:22:57;30.80;99.90
25504;DHT22;13410;52.114;5.718;2023-06-10T08:25:23;30.70;99.90
25504;DHT22;13410;52.114;5.718;2023-06-10T08:27:48;30.80;99.90
25504;DHT22;13410;52.114;5.718;2023-06-10T08:30:15;30.60;99.90
25504;DHT22;13410;52.114;5.718;2023-06-10T08:32:41;30.40;99.90
25504;DHT22;13410;52.114;5.718;2023-06-10T08:35:07;30.30;99.90
25504;DHT22;13410;52.114;5.718;2023-06-10T08:37:33;30.20;99.90
25504;DHT22;13410;52.114;5.718;2023-06-10T08:39:58;30.30;99.90
25504;DHT22;13410;52.114;5.718;2023-06-10T08:42:35;30.30;99.90
25504;DHT22;13410;52.114;5.718;2023-06-10T08:45:03;30.50;99.90
25504;DHT22;13410;52.114;5.718;2023-06-10T08:47:34;30.30;99.90
25504;DHT22;13410;52.114;5.718;2023-06-10T08:50:04;30.30;99.90
25504;DHT22;13410;52.114;5.718;2023-06-10T08:52:35;30.40;99.90
25504;DHT22;13410;52.114;5.718;2023-06-10T08:55:15;30.50;99.90
25504;DHT22;13410;52.114;5.718;2023-06-10T08:57:42;30.60;99.90
25504;DHT22;13410;52.114;5.718;2023-06-10T09:00:10;30.50;99.90
25504;DHT22;13410;52.114;5.718;2023-06-10T09:02:36;30.70;99.90
25504;DHT22;13410;52.114;5.718;2023-06-10T09:05:02;30.50;99.90
25504;DHT22;13410;52.114;5.718;2023-06-10T09:07:30;30.40;99.90
25504;DHT22;13410;52.114;5.718;2023-06-10T09:10:02;30.60;99.90
25504;DHT22;13410;52.114;5.718;2023-06-10T09:12:33;30.50;99.90
25504;DHT22;13410;52.114;5.718;2023-06-10T09:14:59;30.50;99.90
25504;DHT22;13410;52.114;5.718;2023-06-10T09:17:25;30.50;99.90
25504;DHT22;13410;52.114;5.718;2023-06-10T09:19:52;30.60;99.90
25504;DHT22;13410;52.114;5.718;2023-06-10T09:22:19;30.70;99.90
25504;DHT22;13410;52.114;5.718;2023-06-10T09:24:46;30.60;99.90
25504;DHT22;13410;52.114;5.718;2023-06-10T09:27:12;30.40;99.90
25504;DHT22;13410;52.114;5.718;2023-06-10T09:29:52;30.50;99.90
25504;DHT22;13410;52.114;5.718;2023-06-10T09:32:18;30.60;99.90
25504;DHT22;13410;52.114;5.718;2023-06-10T09:34:44;30.80;99.90
25504;DHT22;13410;52.114;5.718;2023-06-10T09:37:10;30.70;99.90
25504;DHT22;13410;52.114;5.718;2023-06-10T09:39:38;30.50;99.90
25504;DHT22;13410;52.114;5.718;2023-06-10T09:42:16;30.60;99.90
25504;DHT22;13410;52.114;5.718;2023-06-10T09:44:42;30.80;99.90
25504;DHT22;13410;52.114;5.718;2023-06-10T09:47:22;30.90;99.90
25504;DHT22;13410;52.114;5.718;2023-06-10T09:49:54;30.90;99.90
25504;DHT22;13410;52.114;5.718;2023-06-10T09:52:23;31.00;99.90
25504;DHT22;13410;52.114;5.718;2023-06-10T09:55:00;31.00;99.90
25504;DHT22;13410;52.114;5.718;2023-06-10T09:57:32;30.90;99.90
25504;DHT22;13410;52.114;5.718;2023-06-10T10:00:06;30.70;99.90
25504;DHT22;13410;52.114;5.718;2023-06-10T10:02:50;30.70;99.90
25504;DHT22;13410;52.114;5.718;2023-06-10T10:05:17;30.90;99.90
25504;DHT22;13410;52.114;5.718;2023-06-10T10:07:44;31.00;99.90
25504;DHT22;13410;52.114;5.718;2023-06-10T10:10:12;31.30;99.90
25504;DHT22;13410;52.114;5.718;2023-06-10T10:12:39;31.60;99.90
25504;DHT22;13410;52.114;5.718;2023-06-10T10:15:10;31.60;99.90
25504;DHT22;13410;52.114;5.718;2023-06-10T10:17:37;31.50;99.90
25504;DHT22;13410;52.114;5.718;2023-06-10T10:20:05;31.40;99.90
25504;DHT22;13410;52.114;5.718;2023-06-10T10:22:38;31.30;99.90
25504;DHT22;13410;52.114;5.718;2023-06-10T10:25:11;31.50;99.90
25504;DHT22;13410;52.114;5.718;2023-06-10T10:27:51;31.60;99.90
25504;DHT22;13410;52.114;5.718;2023-06-10T10:30:17;31.70;99.90
25504;DHT22;13410;52.114;5.718;2023-06-10T10:32:58;31.70;99.90
25504;DHT22;13410;52.114;5.718;2023-06-10T10:35:27;31.50;99.90
25504;DHT22;13410;52.114;5.718;2023-06-10T10:37:54;31.40;99.90
25504;DHT22;13410;52.114;5.718;2023-06-10T10:40:23;31.60;99.90
25504;DHT22;13410;52.114;5.718;2023-06-10T10:42:50;31.70;99.90
25504;DHT22;13410;52.114;5.718;2023-06-10T10:45:17;31.50;99.90
25504;DHT22;13410;52.114;5.718;2023-06-10T10:47:46;31.50;99.90
25504;DHT22;13410;52.114;5.718;2023-06-10T10:50:17;31.50;99.90
25504;DHT22;13410;52.114;5.718;2023-06-10T10:53:02;31.60;99.90
25504;DHT22;13410;52.114;5.718;2023-06-10T10:55:28;31.60;99.90
25504;DHT22;13410;52.114;5.718;2023-06-10T11:00:34;31.40;99.90
25504;DHT22;13410;52.114;5.718;2023-06-10T11:05:48;32.00;99.90
25504;DHT22;13410;52.114;5.718;2023-06-10T11:11:00;32.60;99.90
25504;DHT22;13410;52.114;5.718;2023-06-10T11:13:27;32.50;99.90
25504;DHT22;13410;52.114;5.718;2023-06-10T11:15:57;32.50;99.90
25504;DHT22;13410;52.114;5.718;2023-06-10T11:18:29;32.40;99.90
25504;DHT22;13410;52.114;5.718;2023-06-10T11:20:57;32.40;99.90
25504;DHT22;13410;52.114;5.718;2023-06-10T11:26:16;32.20;99.90
25504;DHT22;13410;52.114;5.718;2023-06-10T11:29:05;32.00;99.90
25504;DHT22;13410;52.114;5.718;2023-06-10T11:31:43;32.20;99.90
25504;DHT22;13410;52.114;5.718;2023-06-10T11:34:09;32.40;99.90
25504;DHT22;13410;52.114;5.718;2023-06-10T11:36:40;32.70;99.90
25504;DHT22;13410;52.114;5.718;2023-06-10T11:39:08;33.00;99.90
25504;DHT22;13410;52.114;5.718;2023-06-10T11:41:35;32.80;99.90
25504;DHT22;13410;52.114;5.718;2023-06-10T11:44:03;32.70;99.90
25504;DHT22;13410;52.114;5.718;2023-06-10T11:46:29;32.60;99.90
25504;DHT22;13410;52.114;5.718;2023-06-10T11:48:57;32.60;99.90
25504;DHT22;13410;52.114;5.718;2023-06-10T11:51:26;32.50;99.90
25504;DHT22;13410;52.114;5.718;2023-06-10T11:53:52;32.20;99.90
25504;DHT22;13410;52.114;5.718;2023-06-10T11:56:29;32.20;99.90
25504;DHT22;13410;52.114;5.718;2023-06-10T11:59:07;32.00;99.90
25504;DHT22;13410;52.114;5.718;2023-06-10T12:01:34;32.10;99.90
25504;DHT22;13410;52.114;5.718;2023-06-10T12:04:09;32.30;99.90
25504;DHT22;13410;52.114;5.718;2023-06-10T12:06:43;32.50;99.90
25504;DHT22;13410;52.114;5.718;2023-06-10T12:09:23;32.70;99.90
25504;DHT22;13410;52.114;5.718;2023-06-10T12:11:58;32.80;99.90
25504;DHT22;13410;52.114;5.718;2023-06-10T12:17:44;32.60;99.90
25504;DHT22;13410;52.114;5.718;2023-06-10T12:20:25;32.90;99.90
25504;DHT22;13410;52.114;5.718;2023-06-10T12:22:51;33.00;99.90
25504;DHT22;13410;52.114;5.718;2023-06-10T12:25:17;33.10;99.90
25504;DHT22;13410;52.114;5.718;2023-06-10T12:27:52;32.80;99.90
25504;DHT22;13410;52.114;5.718;2023-06-10T12:30:22;32.70;99.90
25504;DHT22;13410;52.114;5.718;2023-06-10T12:32:48;32.80;99.90
25504;DHT22;13410;52.114;5.718;2023-06-10T12:35:17;33.00;99.90
25504;DHT22;13410;52.114;5.718;2023-06-10T12:37:59;33.40;99.90
25504;DHT22;13410;52.114;5.718;2023-06-10T12:40:38;33.40;99.90
25504;DHT22;13410;52.114;5.718;2023-06-10T12:43:05;33.40;99.90
25504;DHT22;13410;52.114;5.718;2023-06-10T12:45:34;33.60;99.90
25504;DHT22;13410;52.114;5.718;2023-06-10T12:48:16;33.50;99.90
25504;DHT22;13410;52.114;5.718;2023-06-10T12:50:43;33.40;99.90
25504;DHT22;13410;52.114;5.718;2023-06-10T12:53:10;33.30;99.90
25504;DHT22;13410;52.114;5.718;2023-06-10T12:55:39;33.40;99.90
25504;DHT22;13410;52.114;5.718;2023-06-10T12:58:05;33.50;99.90
25504;DHT22;13410;52.114;5.718;2023-06-10T13:00:31;33.40;99.90
25504;DHT22;13410;52.114;5.718;2023-06-10T13:02:58;33.40;99.90
25504;DHT22;13410;52.114;5.718;2023-06-10T13:05:25;33.30;99.90
25504;DHT22;13410;52.114;5.718;2023-06-10T13:07:51;33.30;99.90
25504;DHT22;13410;52.114;5.718;2023-06-10T13:10:16;33.30;99.90
25504;DHT22;13410;52.114;5.718;2023-06-10T13:12:43;33.10;99.90
25504;DHT22;13410;52.114;5.718;2023-06-10T13:15:09;32.80;99.90
25504;DHT22;13410;52.114;5.718;2023-06-10T13:17:36;32.80;99.90
25504;DHT22;13410;52.114;5.718;2023-06-10T13:20:05;32.90;99.90
25504;DHT22;13410;52.114;5.718;2023-06-10T13:22:31;33.00;99.90
25504;DHT22;13410;52.114;5.718;2023-06-10T13:25:04;32.90;99.90
25504;DHT22;13410;52.114;5.718;2023-06-10T13:27:32;32.90;99.90
25504;DHT22;13410;52.114;5.718;2023-06-10T13:29:58;33.00;99.90
25504;DHT22;13410;52.114;5.718;2023-06-10T13:32:23;33.20;99.90
25504;DHT22;13410;52.114;5.718;2023-06-10T13:34:49;33.20;99.90
25504;DHT22;13410;52.114;5.718;2023-06-10T13:37:15;33.00;99.90
25504;DHT22;13410;52.114;5.718;2023-06-10T13:39:44;33.00;99.90
25504;DHT22;13410;52.114;5.718;2023-06-10T13:42:10;33.00;99.90
25504;DHT22;13410;52.114;5.718;2023-06-10T13:44:37;33.20;99.90
25504;DHT22;13410;52.114;5.718;2023-06-10T13:47:03;33.30;99.90
25504;DHT22;13410;52.114;5.718;2023-06-10T13:49:29;33.40;99.90
25504;DHT22;13410;52.114;5.718;2023-06-10T13:51:55;33.20;99.90
25504;DHT22;13410;52.114;5.718;2023-06-10T13:54:20;32.80;99.90
25504;DHT22;13410;52.114;5.718;2023-06-10T13:56:46;32.80;99.90
25504;DHT22;13410;52.114;5.718;2023-06-10T13:59:12;33.10;99.90
25504;DHT22;13410;52.114;5.718;2023-06-10T14:01:38;33.10;99.90
25504;DHT22;13410;52.114;5.718;2023-06-10T14:04:04;33.20;99.90
25504;DHT22;13410;52.114;5.718;2023-06-10T14:06:30;33.00;99.90
25504;DHT22;13410;52.114;5.718;2023-06-10T14:08:56;33.00;99.90
25504;DHT22;13410;52.114;5.718;2023-06-10T14:11:21;33.00;99.90
25504;DHT22;13410;52.114;5.718;2023-06-10T14:13:47;33.10;99.90
25504;DHT22;13410;52.114;5.718;2023-06-10T14:16:13;33.30;99.90
25504;DHT22;13410;52.114;5.718;2023-06-10T14:18:38;33.20;99.90
25504;DHT22;13410;52.114;5.718;2023-06-10T14:21:04;33.00;99.90
25504;DHT22;13410;52.114;5.718;2023-06-10T14:23:29;33.00;99.90
25504;DHT22;13410;52.114;5.718;2023-06-10T14:25:55;33.10;99.90
25504;DHT22;13410;52.114;5.718;2023-06-10T14:28:21;33.30;99.90
25504;DHT22;13410;52.114;5.718;2023-06-10T14:30:46;33.30;99.90
25504;DHT22;13410;52.114;5.718;2023-06-10T14:33:15;33.20;99.90
25504;DHT22;13410;52.114;5.718;2023-06-10T14:35:40;33.20;99.90
25504;DHT22;13410;52.114;5.718;2023-06-10T14:38:08;33.40;99.90
25504;DHT22;13410;52.114;5.718;2023-06-10T14:40:33;33.40;99.90
25504;DHT22;13410;52.114;5.718;2023-06-10T14:43:00;33.40;99.90
25504;DHT22;13410;52.114;5.718;2023-06-10T14:45:29;33.50;99.90
25504;DHT22;13410;52.114;5.718;2023-06-10T14:47:55;33.50;99.90
25504;DHT22;13410;52.114;5.718;2023-06-10T14:50:21;33.60;99.90
25504;DHT22;13410;52.114;5.718;2023-06-10T14:52:47;33.70;99.90
25504;DHT22;13410;52.114;5.718;2023-06-10T14:55:13;33.90;99.90
25504;DHT22;13410;52.114;5.718;2023-06-10T14:57:38;33.60;99.90
25504;DHT22;13410;52.114;5.718;2023-06-10T15:00:04;33.50;99.90
25504;DHT22;13410;52.114;5.718;2023-06-10T15:02:32;33.40;99.90
25504;DHT22;13410;52.114;5.718;2023-06-10T15:04:57;33.30;99.90
25504;DHT22;13410;52.114;5.718;2023-06-10T15:07:23;33.30;99.90
25504;DHT22;13410;52.114;5.718;2023-06-10T15:09:48;33.50;99.90
25504;DHT22;13410;52.114;5.718;2023-06-10T15:12:14;33.60;99.90
25504;DHT22;13410;52.114;5.718;2023-06-10T15:14:39;33.60;99.90
25504;DHT22;13410;52.114;5.718;2023-06-10T15:17:05;33.50;99.90
25504;DHT22;13410;52.114;5.718;2023-06-10T15:19:31;33.20;99.90
25504;DHT22;13410;52.114;5.718;2023-06-10T15:21:56;33.00;99.90
25504;DHT22;13410;52.114;5.718;2023-06-10T15:24:22;32.60;99.90
25504;DHT22;13410;52.114;5.718;2023-06-10T15:26:47;32.60;99.90
25504;DHT22;13410;52.114;5.718;2023-06-10T15:29:13;32.90;99.90
25504;DHT22;13410;52.114;5.718;2023-06-10T15:31:39;33.10;99.90
25504;DHT22;13410;52.114;5.718;2023-06-10T15:34:04;33.40;99.90
25504;DHT22;13410;52.114;5.718;2023-06-10T15:36:32;33.50;99.90
25504;DHT22;13410;52.114;5.718;2023-06-10T15:39:01;33.70;99.90
25504;DHT22;13410;52.114;5.718;2023-06-10T15:41:28;33.90;99.90
25504;DHT22;13410;52.114;5.718;2023-06-10T15:43:54;34.00;99.90
25504;DHT22;13410;52.114;5.718;2023-06-10T15:46:19;34.10;99.90
25504;DHT22;13410;52.114;5.718;2023-06-10T15:48:45;33.90;99.90